sensor_id;sensor_type;location;lat;lon;timestamp;temperature;humidity
58261;DHT22;44058;52.898;6.502;2022-09-16T00:02:12;12.40;99.90
58261;DHT22;44058;52.898;6.502;2022-09-16T00:04:39;12.40;99.90
58261;DHT22;44058;52.898;6.502;2022-09-16T00:07:04;12.40;99.90
58261;DHT22;44058;52.898;6.502;2022-09-16T00:09:30;12.40;99.90
58261;DHT22;44058;52.898;6.502;2022-09-16T00:11:56;12.40;99.90
58261;DHT22;44058;52.898;6.502;2022-09-16T00:14:21;12.40;99.90
58261;DHT22;44058;52.898;6.502;2022-09-16T00:16:47;12.40;99.90
58261;DHT22;44058;52.898;6.502;2022-09-16T00:19:13;12.40;99.90
58261;DHT22;44058;52.898;6.502;2022-09-16T00:21:38;12.40;99.90
58261;DHT22;44058;52.898;6.502;2022-09-16T00:24:04;12.30;99.90
58261;DHT22;44058;52.898;6.502;2022-09-16T00:26:30;12.30;99.90
58261;DHT22;44058;52.898;6.502;2022-09-16T00:28:56;12.30;99.90
58261;DHT22;44058;52.898;6.502;2022-09-16T00:31:21;12.30;99.90
58261;DHT22;44058;52.898;6.502;2022-09-16T00:33:47;12.30;99.90
58261;DHT22;44058;52.898;6.502;2022-09-16T00:36:17;12.40;99.90
58261;DHT22;44058;52.898;6.502;2022-09-16T00:38:44;12.40;99.90
58261;DHT22;44058;52.898;6.502;2022-09-16T00:41:16;12.40;99.90
58261;DHT22;44058;52.898;6.502;2022-09-16T00:43:55;12.30;99.90
58261;DHT22;44058;52.898;6.502;2022-09-16T00:46:41;12.30;99.90
58261;DHT22;44058;52.898;6.502;2022-09-16T00:51:46;12.40;99.90
58261;DHT22;44058;52.898;6.502;2022-09-16T00:54:13;12.40;99.90
58261;DHT22;44058;52.898;6.502;2022-09-16T00:56:43;12.40;99.90
58261;DHT22;44058;52.898;6.502;2022-09-16T00:59:18;12.50;99.90
58261;DHT22;44058;52.898;6.502;2022-09-16T01:01:45;12.50;99.90
58261;DHT22;44058;52.898;6.502;2022-09-16T01:07:13;12.50;99.90
58261;DHT22;44058;52.898;6.502;2022-09-16T01:09:39;12.50;99.90
58261;DHT22;44058;52.898;6.502;2022-09-16T01:12:06;12.50;99.90
58261;DHT22;44058;52.898;6.502;2022-09-16T01:14:34;12.50;99.90
58261;DHT22;44058;52.898;6.502;2022-09-16T01:28:49;12.50;99.90
58261;DHT22;44058;52.898;6.502;2022-09-16T01:31:23;12.50;99.90
58261;DHT22;44058;52.898;6.502;2022-09-16T01:34:23;12.50;99.90
58261;DHT22;44058;52.898;6.502;2022-09-16T01:40:11;12.40;99.90
58261;DHT22;44058;52.898;6.502;2022-09-16T01:42:53;12.40;99.90
58261;DHT22;44058;52.898;6.502;2022-09-16T01:46:06;12.40;99.90
58261;DHT22;44058;52.898;6.502;2022-09-16T01:56:48;12.40;99.90
58261;DHT22;44058;52.898;6.502;2022-09-16T02:02:10;12.30;99.90
58261;DHT22;44058;52.898;6.502;2022-09-16T02:04:49;12.30;99.90
58261;DHT22;44058;52.898;6.502;2022-09-16T02:07:19;12.30;99.90
58261;DHT22;44058;52.898;6.502;2022-09-16T02:09:57;12.30;99.90
58261;DHT22;44058;52.898;6.502;2022-09-16T02:12:29;12.30;99.90
58261;DHT22;44058;52.898;6.502;2022-09-16T02:15:02;12.30;99.90
58261;DHT22;44058;52.898;6.502;2022-09-16T02:17:32;12.20;99.90
58261;DHT22;44058;52.898;6.502;2022-09-16T02:20:08;12.20;99.90
58261;DHT22;44058;52.898;6.502;2022-09-16T02:22:51;12.20;99.90
58261;DHT22;44058;52.898;6.502;2022-09-16T02:25:19;12.20;99.90
58261;DHT22;44058;52.898;6.502;2022-09-16T02:27:47;12.10;99.90
58261;DHT22;44058;52.898;6.502;2022-09-16T02:30:17;12.10;99.90
58261;DHT22;44058;52.898;6.502;2022-09-16T02:32:46;12.10;99.90
58261;DHT22;44058;52.898;6.502;2022-09-16T02:35:15;12.10;99.90
58261;DHT22;44058;52.898;6.502;2022-09-16T02:37:47;12.00;99.90
58261;DHT22;44058;52.898;6.502;2022-09-16T02:40:19;12.00;99.90
58261;DHT22;44058;52.898;6.502;2022-09-16T02:42:47;12.00;99.90
58261;DHT22;44058;52.898;6.502;2022-09-16T02:45:14;11.90;99.90
58261;DHT22;44058;52.898;6.502;2022-09-16T02:50:12;11.90;99.90
58261;DHT22;44058;52.898;6.502;2022-09-16T02:53:02;11.90;99.90
58261;DHT22;44058;52.898;6.502;2022-09-16T02:55:49;11.90;99.90
58261;DHT22;44058;52.898;6.502;2022-09-16T02:58:15;11.90;99.90
58261;DHT22;44058;52.898;6.502;2022-09-16T03:00:44;11.80;99.90
58261;DHT22;44058;52.898;6.502;2022-09-16T03:03:12;11.70;99.90
58261;DHT22;44058;52.898;6.502;2022-09-16T03:06:17;11.70;99.90
58261;DHT22;44058;52.898;6.502;2022-09-16T03:08:44;11.80;99.90
58261;DHT22;44058;52.898;6.502;2022-09-16T03:17:26;11.70;99.90
58261;DHT22;44058;52.898;6.502;2022-09-16T03:25:59;11.80;99.90
58261;DHT22;44058;52.898;6.502;2022-09-16T03:31:04;11.80;99.90
58261;DHT22;44058;52.898;6.502;2022-09-16T03:33:42;11.80;99.90
58261;DHT22;44058;52.898;6.502;2022-09-16T03:36:14;11.90;99.90
58261;DHT22;44058;52.898;6.502;2022-09-16T03:38:41;11.90;99.90
58261;DHT22;44058;52.898;6.502;2022-09-16T03:41:09;11.90;99.90
58261;DHT22;44058;52.898;6.502;2022-09-16T03:43:36;11.90;99.90
58261;DHT22;44058;52.898;6.502;2022-09-16T03:46:02;11.90;99.90
58261;DHT22;44058;52.898;6.502;2022-09-16T03:48:29;11.90;99.90
58261;DHT22;44058;52.898;6.502;2022-09-16T03:50:55;11.90;99.90
58261;DHT22;44058;52.898;6.502;2022-09-16T03:53:21;11.80;99.90
58261;DHT22;44058;52.898;6.502;2022-09-16T03:55:48;11.80;99.90
58261;DHT22;44058;52.898;6.502;2022-09-16T03:58:14;11.80;99.90
58261;DHT22;44058;52.898;6.502;2022-09-16T04:00:40;11.90;99.90
58261;DHT22;44058;52.898;6.502;2022-09-16T04:03:07;11.80;99.90
58261;DHT22;44058;52.898;6.502;2022-09-16T04:05:33;11.90;99.90
58261;DHT22;44058;52.898;6.502;2022-09-16T04:07:58;11.90;99.90
58261;DHT22;44058;52.898;6.502;2022-09-16T04:10:24;11.90;99.90
58261;DHT22;44058;52.898;6.502;2022-09-16T04:12:49;11.80;99.90
58261;DHT22;44058;52.898;6.502;2022-09-16T04:15:15;11.70;99.90
58261;DHT22;44058;52.898;6.502;2022-09-16T04:17:41;11.70;99.90
58261;DHT22;44058;52.898;6.502;2022-09-16T04:20:07;11.70;99.90
58261;DHT22;44058;52.898;6.502;2022-09-16T04:22:33;11.80;99.90
58261;DHT22;44058;52.898;6.502;2022-09-16T04:24:59;11.70;99.90
58261;DHT22;44058;52.898;6.502;2022-09-16T04:27:24;11.70;99.90
58261;DHT22;44058;52.898;6.502;2022-09-16T04:29:50;11.70;99.90
58261;DHT22;44058;52.898;6.502;2022-09-16T04:32:16;11.70;99.90
58261;DHT22;44058;52.898;6.502;2022-09-16T04:34:41;11.70;99.90
58261;DHT22;44058;52.898;6.502;2022-09-16T04:37:07;11.70;99.90
58261;DHT22;44058;52.898;6.502;2022-09-16T04:39:33;11.60;99.90
58261;DHT22;44058;52.898;6.502;2022-09-16T04:41:58;11.60;99.90
58261;DHT22;44058;52.898;6.502;2022-09-16T04:44:26;11.60;99.90
58261;DHT22;44058;52.898;6.502;2022-09-16T04:46:54;11.60;99.90
58261;DHT22;44058;52.898;6.502;2022-09-16T04:49:20;11.60;99.90
58261;DHT22;44058;52.898;6.502;2022-09-16T04:51:45;11.50;99.90
58261;DHT22;44058;52.898;6.502;2022-09-16T04:54:11;11.50;99.90
58261;DHT22;44058;52.898;6.502;2022-09-16T04:56:37;11.50;99.90
58261;DHT22;44058;52.898;6.502;2022-09-16T04:59:03;11.50;99.90
58261;DHT22;44058;52.898;6.502;2022-09-16T05:01:32;11.50;99.90
58261;DHT22;44058;52.898;6.502;2022-09-16T05:04:00;11.40;99.90
58261;DHT22;44058;52.898;6.502;2022-09-16T05:06:31;11.40;99.90
58261;DHT22;44058;52.898;6.502;2022-09-16T05:08:58;11.40;99.90
58261;DHT22;44058;52.898;6.502;2022-09-16T05:11:27;11.40;99.90
58261;DHT22;44058;52.898;6.502;2022-09-16T05:13:54;11.40;99.90
58261;DHT22;44058;52.898;6.502;2022-09-16T05:16:23;11.30;99.90
58261;DHT22;44058;52.898;6.502;2022-09-16T05:18:52;11.30;99.90
58261;DHT22;44058;52.898;6.502;2022-09-16T05:21:20;11.30;99.90
58261;DHT22;44058;52.898;6.502;2022-09-16T05:23:46;11.30;99.90
58261;DHT22;44058;52.898;6.502;2022-09-16T05:26:18;11.30;99.90
58261;DHT22;44058;52.898;6.502;2022-09-16T05:28:44;11.30;99.90
58261;DHT22;44058;52.898;6.502;2022-09-16T05:31:12;11.20;99.90
58261;DHT22;44058;52.898;6.502;2022-09-16T05:33:40;11.20;99.90
58261;DHT22;44058;52.898;6.502;2022-09-16T05:36:12;11.20;99.90
58261;DHT22;44058;52.898;6.502;2022-09-16T05:38:38;11.20;99.90
58261;DHT22;44058;52.898;6.502;2022-09-16T05:41:04;11.20;99.90
58261;DHT22;44058;52.898;6.502;2022-09-16T05:43:31;11.20;99.90
58261;DHT22;44058;52.898;6.502;2022-09-16T05:45:58;11.20;99.90
58261;DHT22;44058;52.898;6.502;2022-09-16T05:48:24;11.20;99.90
58261;DHT22;44058;52.898;6.502;2022-09-16T05:50:54;11.20;99.90
58261;DHT22;44058;52.898;6.502;2022-09-16T05:53:21;11.30;99.90
58261;DHT22;44058;52.898;6.502;2022-09-16T05:56:23;11.30;99.90
58261;DHT22;44058;52.898;6.502;2022-09-16T05:58:53;11.30;99.90
58261;DHT22;44058;52.898;6.502;2022-09-16T06:01:25;11.30;99.90
58261;DHT22;44058;52.898;6.502;2022-09-16T06:03:52;11.30;99.90
58261;DHT22;44058;52.898;6.502;2022-09-16T06:09:04;11.30;99.90
58261;DHT22;44058;52.898;6.502;2022-09-16T06:11:30;11.40;99.90
58261;DHT22;44058;52.898;6.502;2022-09-16T06:13:57;11.40;99.90
58261;DHT22;44058;52.898;6.502;2022-09-16T06:16:25;11.40;99.90
58261;DHT22;44058;52.898;6.502;2022-09-16T06:18:55;11.40;99.90
58261;DHT22;44058;52.898;6.502;2022-09-16T06:21:22;11.40;99.90
58261;DHT22;44058;52.898;6.502;2022-09-16T06:23:48;11.50;99.90
58261;DHT22;44058;52.898;6.502;2022-09-16T06:26:17;11.40;99.90
58261;DHT22;44058;52.898;6.502;2022-09-16T06:28:43;11.40;99.90
58261;DHT22;44058;52.898;6.502;2022-09-16T06:31:13;11.50;99.90
58261;DHT22;44058;52.898;6.502;2022-09-16T06:33:39;11.60;99.90
58261;DHT22;44058;52.898;6.502;2022-09-16T06:36:27;11.60;99.90
58261;DHT22;44058;52.898;6.502;2022-09-16T06:38:53;11.70;99.90
58261;DHT22;44058;52.898;6.502;2022-09-16T06:41:20;11.90;99.90
58261;DHT22;44058;52.898;6.502;2022-09-16T06:43:46;12.00;99.90
58261;DHT22;44058;52.898;6.502;2022-09-16T06:46:15;12.10;99.90
58261;DHT22;44058;52.898;6.502;2022-09-16T06:48:43;12.20;99.90
58261;DHT22;44058;52.898;6.502;2022-09-16T06:51:14;12.20;99.90
58261;DHT22;44058;52.898;6.502;2022-09-16T06:53:41;12.30;99.90
58261;DHT22;44058;52.898;6.502;2022-09-16T06:56:09;12.40;99.90
58261;DHT22;44058;52.898;6.502;2022-09-16T06:58:37;12.60;99.90
58261;DHT22;44058;52.898;6.502;2022-09-16T07:01:11;12.70;99.90
58261;DHT22;44058;52.898;6.502;2022-09-16T07:03:39;12.80;99.90
58261;DHT22;44058;52.898;6.502;2022-09-16T07:06:05;12.90;99.90
58261;DHT22;44058;52.898;6.502;2022-09-16T07:08:32;13.00;99.90
58261;DHT22;44058;52.898;6.502;2022-09-16T07:11:04;13.10;99.90
58261;DHT22;44058;52.898;6.502;2022-09-16T07:13:31;13.10;99.90
58261;DHT22;44058;52.898;6.502;2022-09-16T07:16:01;13.10;99.90
58261;DHT22;44058;52.898;6.502;2022-09-16T07:18:28;13.10;99.90
58261;DHT22;44058;52.898;6.502;2022-09-16T07:21:21;13.10;99.90
58261;DHT22;44058;52.898;6.502;2022-09-16T07:23:49;13.20;99.90
58261;DHT22;44058;52.898;6.502;2022-09-16T07:26:17;13.30;99.90
58261;DHT22;44058;52.898;6.502;2022-09-16T07:28:44;13.30;99.90
58261;DHT22;44058;52.898;6.502;2022-09-16T07:31:19;13.40;99.90
58261;DHT22;44058;52.898;6.502;2022-09-16T07:33:47;13.50;99.90
58261;DHT22;44058;52.898;6.502;2022-09-16T07:36:15;13.50;99.90
58261;DHT22;44058;52.898;6.502;2022-09-16T07:38:42;13.60;99.90
58261;DHT22;44058;52.898;6.502;2022-09-16T07:41:19;13.60;99.90
58261;DHT22;44058;52.898;6.502;2022-09-16T07:43:45;13.60;99.90
58261;DHT22;44058;52.898;6.502;2022-09-16T07:46:13;13.70;99.90
58261;DHT22;44058;52.898;6.502;2022-09-16T07:48:42;13.70;99.90
58261;DHT22;44058;52.898;6.502;2022-09-16T07:51:13;13.70;99.90
58261;DHT22;44058;52.898;6.502;2022-09-16T07:53:40;13.80;99.90
58261;DHT22;44058;52.898;6.502;2022-09-16T07:56:09;13.90;99.90
58261;DHT22;44058;52.898;6.502;2022-09-16T07:58:35;13.90;99.90
58261;DHT22;44058;52.898;6.502;2022-09-16T08:01:01;14.00;99.90
58261;DHT22;44058;52.898;6.502;2022-09-16T08:03:27;14.00;99.90
58261;DHT22;44058;52.898;6.502;2022-09-16T08:06:02;14.10;99.90
58261;DHT22;44058;52.898;6.502;2022-09-16T08:08:29;14.20;99.90
58261;DHT22;44058;52.898;6.502;2022-09-16T08:10:56;14.20;99.90
58261;DHT22;44058;52.898;6.502;2022-09-16T08:13:22;14.20;99.90
58261;DHT22;44058;52.898;6.502;2022-09-16T08:15:48;14.30;99.90
58261;DHT22;44058;52.898;6.502;2022-09-16T08:18:14;14.40;99.90
58261;DHT22;44058;52.898;6.502;2022-09-16T08:20:40;14.40;99.90
58261;DHT22;44058;52.898;6.502;2022-09-16T08:23:05;14.50;99.90
58261;DHT22;44058;52.898;6.502;2022-09-16T08:25:31;14.50;99.90
58261;DHT22;44058;52.898;6.502;2022-09-16T08:27:57;14.50;99.90
58261;DHT22;44058;52.898;6.502;2022-09-16T08:30:22;14.60;99.90
58261;DHT22;44058;52.898;6.502;2022-09-16T08:32:55;14.60;99.90
58261;DHT22;44058;52.898;6.502;2022-09-16T08:35:21;14.70;99.90
58261;DHT22;44058;52.898;6.502;2022-09-16T08:37:47;14.80;99.90
58261;DHT22;44058;52.898;6.502;2022-09-16T08:40:19;14.80;99.90
58261;DHT22;44058;52.898;6.502;2022-09-16T08:43:03;14.70;99.90
58261;DHT22;44058;52.898;6.502;2022-09-16T08:45:39;14.70;99.90
58261;DHT22;44058;52.898;6.502;2022-09-16T08:48:28;14.60;99.90
58261;DHT22;44058;52.898;6.502;2022-09-16T08:50:58;14.80;99.90
58261;DHT22;44058;52.898;6.502;2022-09-16T08:53:56;14.90;99.90
58261;DHT22;44058;52.898;6.502;2022-09-16T08:56:24;14.90;99.90
58261;DHT22;44058;52.898;6.502;2022-09-16T08:58:59;14.80;99.90
58261;DHT22;44058;52.898;6.502;2022-09-16T09:01:37;14.80;99.90
58261;DHT22;44058;52.898;6.502;2022-09-16T09:04:04;14.80;99.90
58261;DHT22;44058;52.898;6.502;2022-09-16T09:12:11;15.00;99.90
58261;DHT22;44058;52.898;6.502;2022-09-16T09:17:26;15.10;99.90
58261;DHT22;44058;52.898;6.502;2022-09-16T09:31:08;15.60;99.90
58261;DHT22;44058;52.898;6.502;2022-09-16T09:33:43;15.70;99.90
58261;DHT22;44058;52.898;6.502;2022-09-16T09:39:11;15.80;99.90
58261;DHT22;44058;52.898;6.502;2022-09-16T09:42:04;15.90;99.90
58261;DHT22;44058;52.898;6.502;2022-09-16T09:50:09;16.10;99.90
58261;DHT22;44058;52.898;6.502;2022-09-16T09:52:44;16.20;99.90
58261;DHT22;44058;52.898;6.502;2022-09-16T09:55:16;16.30;99.90
58261;DHT22;44058;52.898;6.502;2022-09-16T09:58:02;16.30;99.90
58261;DHT22;44058;52.898;6.502;2022-09-16T10:00:29;16.40;99.90
58261;DHT22;44058;52.898;6.502;2022-09-16T10:03:05;16.40;99.90
58261;DHT22;44058;52.898;6.502;2022-09-16T10:05:32;16.40;99.90
58261;DHT22;44058;52.898;6.502;2022-09-16T10:08:02;16.40;99.90
58261;DHT22;44058;52.898;6.502;2022-09-16T10:10:32;16.40;99.90
58261;DHT22;44058;52.898;6.502;2022-09-16T10:13:11;16.40;99.90
58261;DHT22;44058;52.898;6.502;2022-09-16T10:15:37;16.30;99.90
58261;DHT22;44058;52.898;6.502;2022-09-16T10:18:18;16.00;99.90
58261;DHT22;44058;52.898;6.502;2022-09-16T10:23:26;15.50;99.90
58261;DHT22;44058;52.898;6.502;2022-09-16T10:26:04;15.30;99.90
58261;DHT22;44058;52.898;6.502;2022-09-16T10:28:30;15.10;99.90
58261;DHT22;44058;52.898;6.502;2022-09-16T10:30:57;14.70;99.90
58261;DHT22;44058;52.898;6.502;2022-09-16T10:33:27;14.80;99.90
58261;DHT22;44058;52.898;6.502;2022-09-16T10:36:06;15.00;99.90
58261;DHT22;44058;52.898;6.502;2022-09-16T10:38:51;15.20;99.90
58261;DHT22;44058;52.898;6.502;2022-09-16T10:41:43;15.50;99.90
58261;DHT22;44058;52.898;6.502;2022-09-16T10:44:22;15.70;99.90
58261;DHT22;44058;52.898;6.502;2022-09-16T10:47:04;15.90;99.90
58261;DHT22;44058;52.898;6.502;2022-09-16T10:49:38;16.00;99.90
58261;DHT22;44058;52.898;6.502;2022-09-16T10:52:13;16.20;99.90
58261;DHT22;44058;52.898;6.502;2022-09-16T10:54:40;16.40;99.90
58261;DHT22;44058;52.898;6.502;2022-09-16T10:57:32;16.50;99.90
58261;DHT22;44058;52.898;6.502;2022-09-16T11:05:37;16.80;99.90
58261;DHT22;44058;52.898;6.502;2022-09-16T11:11:02;16.90;99.90
58261;DHT22;44058;52.898;6.502;2022-09-16T11:14:24;16.80;99.90
58261;DHT22;44058;52.898;6.502;2022-09-16T11:22:00;17.00;99.90
58261;DHT22;44058;52.898;6.502;2022-09-16T11:27:33;16.80;99.90
58261;DHT22;44058;52.898;6.502;2022-09-16T11:30:11;16.90;99.90
58261;DHT22;44058;52.898;6.502;2022-09-16T11:38:05;17.20;99.90
58261;DHT22;44058;52.898;6.502;2022-09-16T11:49:17;16.40;99.90
58261;DHT22;44058;52.898;6.502;2022-09-16T11:51:54;15.80;99.90
58261;DHT22;44058;52.898;6.502;2022-09-16T11:57:01;15.40;99.90
58261;DHT22;44058;52.898;6.502;2022-09-16T11:59:32;15.50;99.90
58261;DHT22;44058;52.898;6.502;2022-09-16T12:10:35;16.20;99.90
58261;DHT22;44058;52.898;6.502;2022-09-16T12:13:11;16.20;99.90
58261;DHT22;44058;52.898;6.502;2022-09-16T12:15:45;16.00;99.90
58261;DHT22;44058;52.898;6.502;2022-09-16T12:18:26;15.70;99.90
58261;DHT22;44058;52.898;6.502;2022-09-16T12:21:23;15.50;99.90
58261;DHT22;44058;52.898;6.502;2022-09-16T12:24:04;15.30;99.90
58261;DHT22;44058;52.898;6.502;2022-09-16T12:26:40;15.10;99.90
58261;DHT22;44058;52.898;6.502;2022-09-16T12:31:54;15.20;99.90
58261;DHT22;44058;52.898;6.502;2022-09-16T12:35:00;15.30;99.90
58261;DHT22;44058;52.898;6.502;2022-09-16T12:39:51;15.70;99.90
58261;DHT22;44058;52.898;6.502;2022-09-16T12:42:47;15.90;99.90
58261;DHT22;44058;52.898;6.502;2022-09-16T12:48:38;16.40;99.90
58261;DHT22;44058;52.898;6.502;2022-09-16T12:59:34;16.00;99.90
58261;DHT22;44058;52.898;6.502;2022-09-16T13:02:16;16.00;99.90
58261;DHT22;44058;52.898;6.502;2022-09-16T13:04:47;16.00;99.90
58261;DHT22;44058;52.898;6.502;2022-09-16T13:07:32;16.00;99.90
58261;DHT22;44058;52.898;6.502;2022-09-16T13:10:04;16.00;99.90
58261;DHT22;44058;52.898;6.502;2022-09-16T13:12:31;16.10;99.90
58261;DHT22;44058;52.898;6.502;2022-09-16T13:14:59;16.10;99.90
58261;DHT22;44058;52.898;6.502;2022-09-16T13:17:31;16.10;99.90
58261;DHT22;44058;52.898;6.502;2022-09-16T13:20:34;16.10;99.90
58261;DHT22;44058;52.898;6.502;2022-09-16T13:23:18;16.00;99.90
58261;DHT22;44058;52.898;6.502;2022-09-16T13:26:03;16.10;99.90
58261;DHT22;44058;52.898;6.502;2022-09-16T13:38:50;16.30;99.90
58261;DHT22;44058;52.898;6.502;2022-09-16T13:41:41;16.10;99.90
58261;DHT22;44058;52.898;6.502;2022-09-16T13:44:29;16.10;99.90
58261;DHT22;44058;52.898;6.502;2022-09-16T13:49:45;16.20;99.90
58261;DHT22;44058;52.898;6.502;2022-09-16T13:52:16;16.10;99.90
58261;DHT22;44058;52.898;6.502;2022-09-16T13:54:48;16.30;99.90
58261;DHT22;44058;52.898;6.502;2022-09-16T14:05:55;15.90;99.90
58261;DHT22;44058;52.898;6.502;2022-09-16T14:08:34;15.50;99.90
58261;DHT22;44058;52.898;6.502;2022-09-16T14:12:10;15.00;99.90
58261;DHT22;44058;52.898;6.502;2022-09-16T14:14:13;14.70;99.90
58261;DHT22;44058;52.898;6.502;2022-09-16T14:16:42;14.70;99.90
58261;DHT22;44058;52.898;6.502;2022-09-16T14:19:27;14.60;99.90
58261;DHT22;44058;52.898;6.502;2022-09-16T14:22:14;14.50;99.90
58261;DHT22;44058;52.898;6.502;2022-09-16T14:24:45;14.50;99.90
58261;DHT22;44058;52.898;6.502;2022-09-16T14:30:03;14.30;99.90
58261;DHT22;44058;52.898;6.502;2022-09-16T14:32:34;14.20;99.90
58261;DHT22;44058;52.898;6.502;2022-09-16T14:35:09;14.20;99.90
58261;DHT22;44058;52.898;6.502;2022-09-16T14:37:37;14.10;99.90
58261;DHT22;44058;52.898;6.502;2022-09-16T14:40:15;14.00;99.90
58261;DHT22;44058;52.898;6.502;2022-09-16T14:43:02;14.00;99.90
58261;DHT22;44058;52.898;6.502;2022-09-16T14:45:30;14.10;99.90
58261;DHT22;44058;52.898;6.502;2022-09-16T14:47:58;14.20;99.90
58261;DHT22;44058;52.898;6.502;2022-09-16T14:50:29;14.30;99.90
58261;DHT22;44058;52.898;6.502;2022-09-16T14:53:01;14.40;99.90
58261;DHT22;44058;52.898;6.502;2022-09-16T14:55:29;14.40;99.90
58261;DHT22;44058;52.898;6.502;2022-09-16T14:57:56;14.30;99.90
58261;DHT22;44058;52.898;6.502;2022-09-16T15:00:27;14.40;99.90
58261;DHT22;44058;52.898;6.502;2022-09-16T15:03:01;14.40;99.90
58261;DHT22;44058;52.898;6.502;2022-09-16T15:05:35;14.50;99.90
58261;DHT22;44058;52.898;6.502;2022-09-16T15:11:12;14.40;99.90
58261;DHT22;44058;52.898;6.502;2022-09-16T15:13:40;14.30;99.90
58261;DHT22;44058;52.898;6.502;2022-09-16T15:18:37;14.20;99.90
58261;DHT22;44058;52.898;6.502;2022-09-16T15:23:31;14.20;99.90
58261;DHT22;44058;52.898;6.502;2022-09-16T15:26:08;14.10;99.90
58261;DHT22;44058;52.898;6.502;2022-09-16T15:28:35;14.10;99.90
58261;DHT22;44058;52.898;6.502;2022-09-16T15:31:01;14.10;99.90
58261;DHT22;44058;52.898;6.502;2022-09-16T15:33:40;14.00;99.90
58261;DHT22;44058;52.898;6.502;2022-09-16T15:36:30;13.80;99.90
58261;DHT22;44058;52.898;6.502;2022-09-16T15:38:57;13.80;99.90
58261;DHT22;44058;52.898;6.502;2022-09-16T15:41:22;13.70;99.90
58261;DHT22;44058;52.898;6.502;2022-09-16T15:43:48;13.60;99.90
58261;DHT22;44058;52.898;6.502;2022-09-16T15:46:18;13.60;99.90
58261;DHT22;44058;52.898;6.502;2022-09-16T15:48:58;13.50;99.90
58261;DHT22;44058;52.898;6.502;2022-09-16T15:51:38;13.50;99.90
58261;DHT22;44058;52.898;6.502;2022-09-16T15:54:30;13.50;99.90
58261;DHT22;44058;52.898;6.502;2022-09-16T15:57:18;13.40;99.90
58261;DHT22;44058;52.898;6.502;2022-09-16T16:00:01;13.30;99.90
58261;DHT22;44058;52.898;6.502;2022-09-16T16:07:48;13.10;99.90
58261;DHT22;44058;52.898;6.502;2022-09-16T16:10:25;13.10;99.90
58261;DHT22;44058;52.898;6.502;2022-09-16T16:12:53;13.10;99.90
58261;DHT22;44058;52.898;6.502;2022-09-16T16:15:38;13.10;99.90
58261;DHT22;44058;52.898;6.502;2022-09-16T16:18:06;13.00;99.90
58261;DHT22;44058;52.898;6.502;2022-09-16T16:20:33;13.00;99.90
58261;DHT22;44058;52.898;6.502;2022-09-16T16:23:00;13.10;99.90
58261;DHT22;44058;52.898;6.502;2022-09-16T16:25:27;13.10;99.90
58261;DHT22;44058;52.898;6.502;2022-09-16T16:27:52;13.10;99.90
58261;DHT22;44058;52.898;6.502;2022-09-16T16:30:19;13.10;99.90
58261;DHT22;44058;52.898;6.502;2022-09-16T16:32:45;13.00;99.90
58261;DHT22;44058;52.898;6.502;2022-09-16T16:35:11;13.00;99.90
58261;DHT22;44058;52.898;6.502;2022-09-16T16:37:37;13.10;99.90
58261;DHT22;44058;52.898;6.502;2022-09-16T16:40:04;13.10;99.90
58261;DHT22;44058;52.898;6.502;2022-09-16T16:42:30;13.10;99.90
58261;DHT22;44058;52.898;6.502;2022-09-16T16:44:56;13.10;99.90
58261;DHT22;44058;52.898;6.502;2022-09-16T16:47:21;13.20;99.90
58261;DHT22;44058;52.898;6.502;2022-09-16T16:49:48;13.20;99.90
58261;DHT22;44058;52.898;6.502;2022-09-16T16:52:15;13.20;99.90
58261;DHT22;44058;52.898;6.502;2022-09-16T16:54:40;13.10;99.90
58261;DHT22;44058;52.898;6.502;2022-09-16T16:57:08;13.20;99.90
58261;DHT22;44058;52.898;6.502;2022-09-16T16:59:34;13.10;99.90
58261;DHT22;44058;52.898;6.502;2022-09-16T17:02:00;13.10;99.90
58261;DHT22;44058;52.898;6.502;2022-09-16T17:04:26;13.10;99.90
58261;DHT22;44058;52.898;6.502;2022-09-16T17:06:52;13.10;99.90
58261;DHT22;44058;52.898;6.502;2022-09-16T17:09:18;13.10;99.90
58261;DHT22;44058;52.898;6.502;2022-09-16T17:11:58;13.10;99.90
58261;DHT22;44058;52.898;6.502;2022-09-16T17:14:26;13.10;99.90
58261;DHT22;44058;52.898;6.502;2022-09-16T17:16:53;13.00;99.90
58261;DHT22;44058;52.898;6.502;2022-09-16T17:19:20;12.90;99.90
58261;DHT22;44058;52.898;6.502;2022-09-16T17:21:47;12.90;99.90
58261;DHT22;44058;52.898;6.502;2022-09-16T17:24:15;12.80;99.90
58261;DHT22;44058;52.898;6.502;2022-09-16T17:26:41;12.90;99.90
58261;DHT22;44058;52.898;6.502;2022-09-16T17:29:07;12.90;99.90
58261;DHT22;44058;52.898;6.502;2022-09-16T17:31:34;12.80;99.90
58261;DHT22;44058;52.898;6.502;2022-09-16T17:34:03;12.80;99.90
58261;DHT22;44058;52.898;6.502;2022-09-16T17:36:32;12.80;99.90
58261;DHT22;44058;52.898;6.502;2022-09-16T17:39:00;12.70;99.90
58261;DHT22;44058;52.898;6.502;2022-09-16T17:41:26;12.70;99.90
58261;DHT22;44058;52.898;6.502;2022-09-16T17:43:53;12.80;99.90
58261;DHT22;44058;52.898;6.502;2022-09-16T17:46:20;12.70;99.90
58261;DHT22;44058;52.898;6.502;2022-09-16T17:48:48;12.70;99.90
58261;DHT22;44058;52.898;6.502;2022-09-16T17:51:15;12.70;99.90
58261;DHT22;44058;52.898;6.502;2022-09-16T17:53:42;12.70;99.90
58261;DHT22;44058;52.898;6.502;2022-09-16T17:56:13;12.70;99.90
58261;DHT22;44058;52.898;6.502;2022-09-16T17:58:43;12.70;99.90
58261;DHT22;44058;52.898;6.502;2022-09-16T18:01:14;12.70;99.90
58261;DHT22;44058;52.898;6.502;2022-09-16T18:03:41;12.70;99.90
58261;DHT22;44058;52.898;6.502;2022-09-16T18:06:13;12.70;99.90
58261;DHT22;44058;52.898;6.502;2022-09-16T18:08:40;12.70;99.90
58261;DHT22;44058;52.898;6.502;2022-09-16T18:11:07;12.70;99.90
58261;DHT22;44058;52.898;6.502;2022-09-16T18:13:33;12.70;99.90
58261;DHT22;44058;52.898;6.502;2022-09-16T18:16:10;12.70;99.90
58261;DHT22;44058;52.898;6.502;2022-09-16T18:18:38;12.70;99.90
58261;DHT22;44058;52.898;6.502;2022-09-16T18:21:06;12.70;99.90
58261;DHT22;44058;52.898;6.502;2022-09-16T18:23:32;12.70;99.90
58261;DHT22;44058;52.898;6.502;2022-09-16T18:26:03;12.70;99.90
58261;DHT22;44058;52.898;6.502;2022-09-16T18:28:29;12.70;99.90
58261;DHT22;44058;52.898;6.502;2022-09-16T18:31:03;12.70;99.90
58261;DHT22;44058;52.898;6.502;2022-09-16T18:33:30;12.70;99.90
58261;DHT22;44058;52.898;6.502;2022-09-16T18:35:58;12.70;99.90
58261;DHT22;44058;52.898;6.502;2022-09-16T18:38:24;12.70;99.90
58261;DHT22;44058;52.898;6.502;2022-09-16T18:40:50;12.80;99.90
58261;DHT22;44058;52.898;6.502;2022-09-16T18:43:17;12.80;99.90
58261;DHT22;44058;52.898;6.502;2022-09-16T18:45:42;12.80;99.90
58261;DHT22;44058;52.898;6.502;2022-09-16T18:48:09;12.80;99.90
58261;DHT22;44058;52.898;6.502;2022-09-16T18:50:34;12.80;99.90
58261;DHT22;44058;52.898;6.502;2022-09-16T18:53:00;12.80;99.90
58261;DHT22;44058;52.898;6.502;2022-09-16T18:55:25;12.90;99.90